sensor_id;sensor_type;location;lat;lon;timestamp;pressure;altitude;pressure_sealevel;temperature;humidity
85119;BME280;75469;47.654;10.494;2024-01-10T00:01:18;91976.72;;;-9.83;83.54
85119;BME280;75469;47.654;10.494;2024-01-10T00:03:44;91971.25;;;-9.87;83.47
85119;BME280;75469;47.654;10.494;2024-01-10T00:06:12;91968.00;;;-9.82;83.59
85119;BME280;75469;47.654;10.494;2024-01-10T00:08:38;91968.84;;;-9.77;83.37
85119;BME280;75469;47.654;10.494;2024-01-10T00:11:04;91968.13;;;-9.72;83.04
85119;BME280;75469;47.654;10.494;2024-01-10T00:13:31;91967.91;;;-9.71;83.28
85119;BME280;75469;47.654;10.494;2024-01-10T00:15:57;91963.75;;;-9.77;83.75
85119;BME280;75469;47.654;10.494;2024-01-10T00:18:24;91962.72;;;-9.76;83.59
85119;BME280;75469;47.654;10.494;2024-01-10T00:20:51;91960.41;;;-9.77;83.78
85119;BME280;75469;47.654;10.494;2024-01-10T00:23:19;91964.59;;;-9.71;83.72
85119;BME280;75469;47.654;10.494;2024-01-10T00:25:46;91965.66;;;-9.67;83.84
85119;BME280;75469;47.654;10.494;2024-01-10T00:28:11;91961.59;;;-9.63;83.67
85119;BME280;75469;47.654;10.494;2024-01-10T00:30:37;91958.28;;;-9.63;83.47
85119;BME280;75469;47.654;10.494;2024-01-10T00:33:03;91955.50;;;-9.62;83.49
85119;BME280;75469;47.654;10.494;2024-01-10T00:35:29;91955.53;;;-9.57;83.59
85119;BME280;75469;47.654;10.494;2024-01-10T00:37:54;91958.72;;;-9.50;83.84
85119;BME280;75469;47.654;10.494;2024-01-10T00:40:20;91956.19;;;-9.45;83.66
85119;BME280;75469;47.654;10.494;2024-01-10T00:42:45;91959.13;;;-9.36;83.29
85119;BME280;75469;47.654;10.494;2024-01-10T00:45:11;91953.28;;;-9.31;83.14
85119;BME280;75469;47.654;10.494;2024-01-10T00:47:36;91953.19;;;-9.19;83.32
85119;BME280;75469;47.654;10.494;2024-01-10T00:50:02;91954.16;;;-9.21;83.13
85119;BME280;75469;47.654;10.494;2024-01-10T00:52:28;91951.13;;;-9.17;82.99
85119;BME280;75469;47.654;10.494;2024-01-10T00:54:53;91959.97;;;-9.08;83.30
85119;BME280;75469;47.654;10.494;2024-01-10T00:57:19;91960.44;;;-9.11;83.06
85119;BME280;75469;47.654;10.494;2024-01-10T00:59:44;91969.97;;;-9.07;83.33
85119;BME280;75469;47.654;10.494;2024-01-10T01:02:10;91971.94;;;-9.14;82.14
85119;BME280;75469;47.654;10.494;2024-01-10T01:04:35;91964.00;;;-9.12;82.89
85119;BME280;75469;47.654;10.494;2024-01-10T01:07:01;91975.03;;;-9.12;82.86
85119;BME280;75469;47.654;10.494;2024-01-10T01:09:26;91986.88;;;-9.06;82.96
85119;BME280;75469;47.654;10.494;2024-01-10T01:11:52;91978.66;;;-9.08;82.78
85119;BME280;75469;47.654;10.494;2024-01-10T01:14:17;91977.72;;;-9.02;82.84
85119;BME280;75469;47.654;10.494;2024-01-10T01:16:43;91980.03;;;-9.00;82.83
85119;BME280;75469;47.654;10.494;2024-01-10T01:19:08;91985.69;;;-8.98;82.73
85119;BME280;75469;47.654;10.494;2024-01-10T01:21:34;91989.59;;;-8.90;82.51
85119;BME280;75469;47.654;10.494;2024-01-10T01:23:59;91988.78;;;-8.96;82.04
85119;BME280;75469;47.654;10.494;2024-01-10T01:26:25;91989.78;;;-8.97;82.16
85119;BME280;75469;47.654;10.494;2024-01-10T01:28:50;91992.63;;;-8.93;81.22
85119;BME280;75469;47.654;10.494;2024-01-10T01:31:16;91995.41;;;-9.00;81.41
85119;BME280;75469;47.654;10.494;2024-01-10T01:33:41;91994.88;;;-9.02;81.74
85119;BME280;75469;47.654;10.494;2024-01-10T01:36:07;91987.19;;;-9.02;81.81
85119;BME280;75469;47.654;10.494;2024-01-10T01:38:32;92000.78;;;-9.02;81.87
85119;BME280;75469;47.654;10.494;2024-01-10T01:40:58;91994.09;;;-9.03;81.66
85119;BME280;75469;47.654;10.494;2024-01-10T01:43:25;91995.84;;;-9.08;82.00
85119;BME280;75469;47.654;10.494;2024-01-10T01:45:53;91999.69;;;-9.06;82.04
85119;BME280;75469;47.654;10.494;2024-01-10T01:48:23;91989.44;;;-9.06;82.50
85119;BME280;75469;47.654;10.494;2024-01-10T01:50:52;91997.59;;;-9.09;82.05
85119;BME280;75469;47.654;10.494;2024-01-10T01:53:20;91990.03;;;-9.21;82.36
85119;BME280;75469;47.654;10.494;2024-01-10T01:55:45;91999.56;;;-9.16;82.56
85119;BME280;75469;47.654;10.494;2024-01-10T01:58:12;91989.75;;;-9.24;82.72
85119;BME280;75469;47.654;10.494;2024-01-10T02:00:38;91992.94;;;-9.12;83.32
85119;BME280;75469;47.654;10.494;2024-01-10T02:03:05;91992.66;;;-9.15;83.15
85119;BME280;75469;47.654;10.494;2024-01-10T02:05:31;91985.53;;;-9.13;83.35
85119;BME280;75469;47.654;10.494;2024-01-10T02:07:58;91987.94;;;-9.24;83.29
85119;BME280;75469;47.654;10.494;2024-01-10T02:10:23;91995.47;;;-9.17;83.49
85119;BME280;75469;47.654;10.494;2024-01-10T02:12:49;91986.72;;;-8.99;82.65
85119;BME280;75469;47.654;10.494;2024-01-10T02:15:15;91993.97;;;-9.13;83.08
85119;BME280;75469;47.654;10.494;2024-01-10T02:17:40;91998.91;;;-9.06;83.17
85119;BME280;75469;47.654;10.494;2024-01-10T02:20:14;91985.97;;;-8.94;82.85
85119;BME280;75469;47.654;10.494;2024-01-10T02:22:42;91988.06;;;-8.91;83.03
85119;BME280;75469;47.654;10.494;2024-01-10T02:25:11;91988.69;;;-8.79;82.69
85119;BME280;75469;47.654;10.494;2024-01-10T02:27:37;91980.25;;;-8.80;82.02
85119;BME280;75469;47.654;10.494;2024-01-10T02:30:04;91983.91;;;-8.70;82.65
85119;BME280;75469;47.654;10.494;2024-01-10T02:32:30;91984.81;;;-8.60;81.57
85119;BME280;75469;47.654;10.494;2024-01-10T02:34:56;91976.47;;;-8.72;82.01
85119;BME280;75469;47.654;10.494;2024-01-10T02:37:22;91973.47;;;-8.64;82.31
85119;BME280;75469;47.654;10.494;2024-01-10T02:39:47;91974.72;;;-8.66;81.88
85119;BME280;75469;47.654;10.494;2024-01-10T02:42:13;91962.38;;;-8.69;82.10
85119;BME280;75469;47.654;10.494;2024-01-10T02:44:38;91963.31;;;-8.54;81.93
85119;BME280;75469;47.654;10.494;2024-01-10T02:47:05;91965.34;;;-8.56;82.34
85119;BME280;75469;47.654;10.494;2024-01-10T02:49:31;91960.97;;;-8.55;82.34
85119;BME280;75469;47.654;10.494;2024-01-10T02:51:56;91951.25;;;-8.53;82.24
85119;BME280;75469;47.654;10.494;2024-01-10T02:54:22;91952.59;;;-8.45;82.26
85119;BME280;75469;47.654;10.494;2024-01-10T02:56:47;91962.34;;;-8.47;81.85
85119;BME280;75469;47.654;10.494;2024-01-10T02:59:13;91964.66;;;-8.46;81.48
85119;BME280;75469;47.654;10.494;2024-01-10T03:01:38;91974.91;;;-8.46;81.83
85119;BME280;75469;47.654;10.494;2024-01-10T03:04:04;91973.19;;;-8.35;81.74
85119;BME280;75469;47.654;10.494;2024-01-10T03:06:29;91974.72;;;-8.34;81.72
85119;BME280;75469;47.654;10.494;2024-01-10T03:08:55;91977.56;;;-8.36;81.90
85119;BME280;75469;47.654;10.494;2024-01-10T03:11:21;91971.94;;;-8.33;82.30
85119;BME280;75469;47.654;10.494;2024-01-10T03:13:47;91981.44;;;-8.33;82.27
85119;BME280;75469;47.654;10.494;2024-01-10T03:16:13;91984.63;;;-8.16;82.90
85119;BME280;75469;47.654;10.494;2024-01-10T03:18:39;91983.13;;;-8.12;83.04
85119;BME280;75469;47.654;10.494;2024-01-10T03:21:05;91985.97;;;-8.08;82.87
85119;BME280;75469;47.654;10.494;2024-01-10T03:23:30;91981.34;;;-8.11;82.60
85119;BME280;75469;47.654;10.494;2024-01-10T03:25:56;91980.09;;;-8.09;82.45
85119;BME280;75469;47.654;10.494;2024-01-10T03:28:23;91974.38;;;-8.16;82.69
85119;BME280;75469;47.654;10.494;2024-01-10T03:30:49;91977.47;;;-8.14;82.33
85119;BME280;75469;47.654;10.494;2024-01-10T03:33:14;91967.44;;;-8.15;82.29
85119;BME280;75469;47.654;10.494;2024-01-10T03:35:41;91976.22;;;-8.11;81.86
85119;BME280;75469;47.654;10.494;2024-01-10T03:38:07;91977.25;;;-8.07;82.54
85119;BME280;75469;47.654;10.494;2024-01-10T03:40:34;91974.66;;;-8.12;82.78
85119;BME280;75469;47.654;10.494;2024-01-10T03:42:59;91969.59;;;-8.02;82.04
85119;BME280;75469;47.654;10.494;2024-01-10T03:45:25;91972.63;;;-8.10;82.28
85119;BME280;75469;47.654;10.494;2024-01-10T03:47:50;91970.97;;;-8.26;83.65
85119;BME280;75469;47.654;10.494;2024-01-10T03:50:19;91976.41;;;-8.18;83.74
85119;BME280;75469;47.654;10.494;2024-01-10T03:52:46;91967.47;;;-8.10;83.25
85119;BME280;75469;47.654;10.494;2024-01-10T03:55:12;91965.00;;;-8.00;82.83
85119;BME280;75469;47.654;10.494;2024-01-10T03:57:41;91970.09;;;-8.05;83.25
85119;BME280;75469;47.654;10.494;2024-01-10T04:00:08;91969.94;;;-7.93;82.88
85119;BME280;75469;47.654;10.494;2024-01-10T04:02:37;91969.16;;;-7.89;83.05
85119;BME280;75469;47.654;10.494;2024-01-10T04:05:08;91970.97;;;-7.89;83.25
85119;BME280;75469;47.654;10.494;2024-01-10T04:07:35;91967.91;;;-7.86;83.02
85119;BME280;75469;47.654;10.494;2024-01-10T04:10:02;91973.09;;;-7.81;83.68
85119;BME280;75469;47.654;10.494;2024-01-10T04:12:27;91976.69;;;-7.82;83.50
85119;BME280;75469;47.654;10.494;2024-01-10T04:14:53;91969.22;;;-7.84;83.27
85119;BME280;75469;47.654;10.494;2024-01-10T04:17:18;91977.66;;;-7.88;83.45
85119;BME280;75469;47.654;10.494;2024-01-10T04:19:44;91977.03;;;-8.00;84.53
85119;BME280;75469;47.654;10.494;2024-01-10T04:22:09;91975.34;;;-7.90;84.40
85119;BME280;75469;47.654;10.494;2024-01-10T04:24:35;91972.38;;;-7.71;84.47
85119;BME280;75469;47.654;10.494;2024-01-10T04:27:00;91973.53;;;-7.52;83.85
85119;BME280;75469;47.654;10.494;2024-01-10T04:29:26;91975.47;;;-7.64;83.89
85119;BME280;75469;47.654;10.494;2024-01-10T04:31:51;91974.72;;;-7.70;84.81
85119;BME280;75469;47.654;10.494;2024-01-10T04:34:17;91976.88;;;-7.51;84.62
85119;BME280;75469;47.654;10.494;2024-01-10T04:36:43;91980.50;;;-7.42;83.98
85119;BME280;75469;47.654;10.494;2024-01-10T04:39:08;91980.44;;;-7.57;84.66
85119;BME280;75469;47.654;10.494;2024-01-10T04:41:34;91977.44;;;-7.34;84.06
85119;BME280;75469;47.654;10.494;2024-01-10T04:44:00;91981.06;;;-7.35;84.07
85119;BME280;75469;47.654;10.494;2024-01-10T04:46:25;91978.25;;;-7.33;84.48
85119;BME280;75469;47.654;10.494;2024-01-10T04:48:51;91980.09;;;-7.24;84.01
85119;BME280;75469;47.654;10.494;2024-01-10T04:51:16;91984.94;;;-7.27;84.14
85119;BME280;75469;47.654;10.494;2024-01-10T04:53:42;91985.75;;;-7.22;84.57
85119;BME280;75469;47.654;10.494;2024-01-10T04:56:08;91984.19;;;-7.23;84.78
85119;BME280;75469;47.654;10.494;2024-01-10T04:58:33;91985.75;;;-7.17;84.65
85119;BME280;75469;47.654;10.494;2024-01-10T05:00:59;91987.06;;;-7.14;84.70
85119;BME280;75469;47.654;10.494;2024-01-10T05:03:25;91983.75;;;-7.09;84.67
85119;BME280;75469;47.654;10.494;2024-01-10T05:05:50;91983.78;;;-6.99;84.58
85119;BME280;75469;47.654;10.494;2024-01-10T05:08:16;91991.75;;;-7.01;84.84
85119;BME280;75469;47.654;10.494;2024-01-10T05:10:45;91982.75;;;-6.98;84.74
85119;BME280;75469;47.654;10.494;2024-01-10T05:13:12;91984.84;;;-6.90;84.55
85119;BME280;75469;47.654;10.494;2024-01-10T05:15:38;91984.31;;;-6.97;85.00
85119;BME280;75469;47.654;10.494;2024-01-10T05:18:04;91987.72;;;-6.71;84.28
85119;BME280;75469;47.654;10.494;2024-01-10T05:20:29;91993.63;;;-6.76;84.18
85119;BME280;75469;47.654;10.494;2024-01-10T05:22:55;91992.88;;;-6.76;85.11
85119;BME280;75469;47.654;10.494;2024-01-10T05:25:24;91991.38;;;-6.52;84.33
85119;BME280;75469;47.654;10.494;2024-01-10T05:27:50;91997.53;;;-6.58;84.50
85119;BME280;75469;47.654;10.494;2024-01-10T05:30:16;91996.03;;;-6.49;84.37
85119;BME280;75469;47.654;10.494;2024-01-10T05:32:43;91996.50;;;-6.57;84.90
85119;BME280;75469;47.654;10.494;2024-01-10T05:35:09;91991.66;;;-6.48;84.26
85119;BME280;75469;47.654;10.494;2024-01-10T05:37:36;91997.28;;;-6.56;84.78
85119;BME280;75469;47.654;10.494;2024-01-10T05:40:02;91996.50;;;-6.57;85.02
85119;BME280;75469;47.654;10.494;2024-01-10T05:42:30;92000.38;;;-6.64;85.72
85119;BME280;75469;47.654;10.494;2024-01-10T05:44:55;92003.72;;;-6.54;85.46
85119;BME280;75469;47.654;10.494;2024-01-10T05:47:21;92012.22;;;-6.53;85.75
85119;BME280;75469;47.654;10.494;2024-01-10T05:49:46;92006.59;;;-6.40;84.67
85119;BME280;75469;47.654;10.494;2024-01-10T05:52:12;92003.75;;;-6.49;86.24
85119;BME280;75469;47.654;10.494;2024-01-10T05:54:38;92006.06;;;-6.52;86.34
85119;BME280;75469;47.654;10.494;2024-01-10T05:57:04;92006.34;;;-6.43;85.91
85119;BME280;75469;47.654;10.494;2024-01-10T05:59:29;92006.34;;;-6.23;85.39
85119;BME280;75469;47.654;10.494;2024-01-10T06:01:56;92010.22;;;-6.26;85.39
85119;BME280;75469;47.654;10.494;2024-01-10T06:04:24;92007.16;;;-6.23;85.53
85119;BME280;75469;47.654;10.494;2024-01-10T06:06:49;92010.75;;;-6.18;85.62
85119;BME280;75469;47.654;10.494;2024-01-10T06:09:15;92008.19;;;-6.13;86.35
85119;BME280;75469;47.654;10.494;2024-01-10T06:11:47;91999.19;;;-5.95;86.61
85119;BME280;75469;47.654;10.494;2024-01-10T06:14:12;92000.44;;;-5.93;85.79
85119;BME280;75469;47.654;10.494;2024-01-10T06:16:38;92000.97;;;-6.06;86.20
85119;BME280;75469;47.654;10.494;2024-01-10T06:19:03;92002.50;;;-6.05;86.11
85119;BME280;75469;47.654;10.494;2024-01-10T06:21:29;92013.09;;;-6.02;86.33
85119;BME280;75469;47.654;10.494;2024-01-10T06:23:54;92006.38;;;-5.92;86.59
85119;BME280;75469;47.654;10.494;2024-01-10T06:26:20;92000.94;;;-5.65;85.79
85119;BME280;75469;47.654;10.494;2024-01-10T06:28:47;92008.69;;;-5.70;85.51
85119;BME280;75469;47.654;10.494;2024-01-10T06:31:13;92008.41;;;-5.84;85.64
85119;BME280;75469;47.654;10.494;2024-01-10T06:33:39;92002.00;;;-5.92;86.05
85119;BME280;75469;47.654;10.494;2024-01-10T06:36:05;92007.69;;;-5.95;85.81
85119;BME280;75469;47.654;10.494;2024-01-10T06:38:30;92002.78;;;-5.96;86.06
85119;BME280;75469;47.654;10.494;2024-01-10T06:40:56;92004.84;;;-5.99;86.07
85119;BME280;75469;47.654;10.494;2024-01-10T06:43:22;92012.31;;;-5.97;86.00
85119;BME280;75469;47.654;10.494;2024-01-10T06:45:47;92012.00;;;-5.90;86.17
85119;BME280;75469;47.654;10.494;2024-01-10T06:48:13;92007.13;;;-5.87;85.79
85119;BME280;75469;47.654;10.494;2024-01-10T06:50:40;92013.31;;;-5.67;85.67
85119;BME280;75469;47.654;10.494;2024-01-10T06:53:05;92011.50;;;-5.87;85.61
85119;BME280;75469;47.654;10.494;2024-01-10T06:55:31;92010.22;;;-5.85;85.96
85119;BME280;75469;47.654;10.494;2024-01-10T06:57:56;92009.44;;;-5.85;87.00
85119;BME280;75469;47.654;10.494;2024-01-10T07:00:22;92008.72;;;-6.01;86.53
85119;BME280;75469;47.654;10.494;2024-01-10T07:02:49;92014.38;;;-5.94;85.22
85119;BME280;75469;47.654;10.494;2024-01-10T07:05:15;92005.09;;;-6.05;86.16
85119;BME280;75469;47.654;10.494;2024-01-10T07:07:41;92014.34;;;-6.14;86.31
85119;BME280;75469;47.654;10.494;2024-01-10T07:10:08;92026.94;;;-6.23;86.69
85119;BME280;75469;47.654;10.494;2024-01-10T07:12:34;92023.59;;;-6.29;86.55
85119;BME280;75469;47.654;10.494;2024-01-10T07:15:00;92029.50;;;-6.23;87.27
85119;BME280;75469;47.654;10.494;2024-01-10T07:17:28;92025.91;;;-6.27;87.32
85119;BME280;75469;47.654;10.494;2024-01-10T07:19:54;92033.09;;;-6.29;87.60
85119;BME280;75469;47.654;10.494;2024-01-10T07:22:22;92029.00;;;-6.30;87.61
85119;BME280;75469;47.654;10.494;2024-01-10T07:24:49;92031.06;;;-6.27;87.71
85119;BME280;75469;47.654;10.494;2024-01-10T07:27:14;92032.88;;;-6.23;87.81
85119;BME280;75469;47.654;10.494;2024-01-10T07:29:40;92036.22;;;-6.17;87.55
85119;BME280;75469;47.654;10.494;2024-01-10T07:32:07;92037.00;;;-6.16;87.36
85119;BME280;75469;47.654;10.494;2024-01-10T07:34:39;92040.34;;;-6.11;87.45
85119;BME280;75469;47.654;10.494;2024-01-10T07:37:04;92036.53;;;-5.98;87.54
85119;BME280;75469;47.654;10.494;2024-01-10T07:39:30;92039.06;;;-5.88;87.39
85119;BME280;75469;47.654;10.494;2024-01-10T07:41:56;92044.50;;;-5.74;87.19
85119;BME280;75469;47.654;10.494;2024-01-10T07:44:21;92047.81;;;-5.63;86.92
85119;BME280;75469;47.654;10.494;2024-01-10T07:46:47;92048.09;;;-5.49;86.65
85119;BME280;75469;47.654;10.494;2024-01-10T07:49:12;92049.59;;;-5.33;86.33
85119;BME280;75469;47.654;10.494;2024-01-10T07:51:38;92046.28;;;-5.23;85.78
85119;BME280;75469;47.654;10.494;2024-01-10T07:54:03;92055.50;;;-5.07;85.51
85119;BME280;75469;47.654;10.494;2024-01-10T07:56:30;92058.69;;;-4.50;85.45
85119;BME280;75469;47.654;10.494;2024-01-10T07:58:55;92062.69;;;-4.19;83.11
85119;BME280;75469;47.654;10.494;2024-01-10T08:01:21;92062.56;;;-3.98;83.04
85119;BME280;75469;47.654;10.494;2024-01-10T08:03:47;92056.03;;;-2.88;81.76
85119;BME280;75469;47.654;10.494;2024-01-10T08:06:12;92059.66;;;-1.27;76.11
85119;BME280;75469;47.654;10.494;2024-01-10T08:08:39;92060.50;;;0.48;72.21
85119;BME280;75469;47.654;10.494;2024-01-10T08:11:04;92060.06;;;0.68;67.11
85119;BME280;75469;47.654;10.494;2024-01-10T08:13:31;92058.38;;;1.97;71.41
85119;BME280;75469;47.654;10.494;2024-01-10T08:15:56;92055.31;;;0.93;65.71
85119;BME280;75469;47.654;10.494;2024-01-10T08:18:23;92059.22;;;0.36;69.07
85119;BME280;75469;47.654;10.494;2024-01-10T08:20:48;92063.69;;;0.08;71.04
85119;BME280;75469;47.654;10.494;2024-01-10T08:23:14;92057.66;;;-0.01;70.36
85119;BME280;75469;47.654;10.494;2024-01-10T08:25:39;92065.84;;;-0.08;69.56
85119;BME280;75469;47.654;10.494;2024-01-10T08:28:06;92062.59;;;1.04;66.33
85119;BME280;75469;47.654;10.494;2024-01-10T08:30:32;92064.78;;;1.42;65.67
85119;BME280;75469;47.654;10.494;2024-01-10T08:32:57;92071.66;;;1.38;66.51
85119;BME280;75469;47.654;10.494;2024-01-10T08:35:24;92067.25;;;1.47;69.97
85119;BME280;75469;47.654;10.494;2024-01-10T08:37:50;92073.28;;;1.56;66.82
85119;BME280;75469;47.654;10.494;2024-01-10T08:40:18;92073.22;;;1.39;66.56
85119;BME280;75469;47.654;10.494;2024-01-10T08:42:46;92069.09;;;0.93;66.35
85119;BME280;75469;47.654;10.494;2024-01-10T08:45:12;92069.25;;;0.88;62.62
85119;BME280;75469;47.654;10.494;2024-01-10T08:47:38;92074.69;;;0.19;68.00
85119;BME280;75469;47.654;10.494;2024-01-10T08:50:04;92076.19;;;0.34;67.63
85119;BME280;75469;47.654;10.494;2024-01-10T08:52:36;92082.41;;;0.10;67.16
85119;BME280;75469;47.654;10.494;2024-01-10T08:55:07;92080.19;;;0.04;69.34
85119;BME280;75469;47.654;10.494;2024-01-10T08:57:33;92079.50;;;0.48;68.59
85119;BME280;75469;47.654;10.494;2024-01-10T08:59:58;92081.84;;;0.36;66.19
85119;BME280;75469;47.654;10.494;2024-01-10T09:02:25;92085.16;;;0.64;66.93
85119;BME280;75469;47.654;10.494;2024-01-10T09:04:53;92077.13;;;0.97;64.28
85119;BME280;75469;47.654;10.494;2024-01-10T09:07:18;92078.59;;;0.89;67.70
85119;BME280;75469;47.654;10.494;2024-01-10T09:09:45;92079.13;;;0.77;65.34
85119;BME280;75469;47.654;10.494;2024-01-10T09:12:10;92085.38;;;0.54;66.01
85119;BME280;75469;47.654;10.494;2024-01-10T09:14:36;92075.41;;;0.70;66.33
85119;BME280;75469;47.654;10.494;2024-01-10T09:17:01;92070.81;;;0.75;66.57
85119;BME280;75469;47.654;10.494;2024-01-10T09:19:29;92082.41;;;1.36;65.78
85119;BME280;75469;47.654;10.494;2024-01-10T09:21:55;92079.50;;;2.96;61.45
85119;BME280;75469;47.654;10.494;2024-01-10T09:24:23;92080.59;;;4.06;55.73
85119;BME280;75469;47.654;10.494;2024-01-10T09:26:51;92071.63;;;5.79;53.27
85119;BME280;75469;47.654;10.494;2024-01-10T09:29:17;92078.44;;;6.53;50.57
85119;BME280;75469;47.654;10.494;2024-01-10T09:31:42;92082.47;;;7.75;52.67
85119;BME280;75469;47.654;10.494;2024-01-10T09:34:09;92084.78;;;7.05;50.80
85119;BME280;75469;47.654;10.494;2024-01-10T09:36:34;92080.84;;;6.22;51.18
85119;BME280;75469;47.654;10.494;2024-01-10T09:39:00;92081.91;;;6.57;52.35
85119;BME280;75469;47.654;10.494;2024-01-10T09:41:27;92088.72;;;5.39;53.29
85119;BME280;75469;47.654;10.494;2024-01-10T09:43:53;92088.06;;;4.67;53.67
85119;BME280;75469;47.654;10.494;2024-01-10T09:46:19;92082.72;;;4.64;54.99
85119;BME280;75469;47.654;10.494;2024-01-10T09:48:44;92081.09;;;4.71;57.78
85119;BME280;75469;47.654;10.494;2024-01-10T09:51:12;92092.59;;;4.58;56.10
85119;BME280;75469;47.654;10.494;2024-01-10T09:57:04;92095.53;;;4.27;55.48
85119;BME280;75469;47.654;10.494;2024-01-10T09:59:31;92092.47;;;4.54;55.96
85119;BME280;75469;47.654;10.494;2024-01-10T10:01:56;92088.28;;;4.03;57.23
85119;BME280;75469;47.654;10.494;2024-01-10T10:04:27;92089.53;;;3.67;58.74
85119;BME280;75469;47.654;10.494;2024-01-10T10:06:59;92090.44;;;2.89;59.95
85119;BME280;75469;47.654;10.494;2024-01-10T10:09:27;92087.31;;;2.26;61.76
85119;BME280;75469;47.654;10.494;2024-01-10T10:11:54;92081.78;;;2.28;62.40
85119;BME280;75469;47.654;10.494;2024-01-10T10:14:20;92082.41;;;2.42;63.02
85119;BME280;75469;47.654;10.494;2024-01-10T10:16:45;92090.31;;;2.02;65.38
85119;BME280;75469;47.654;10.494;2024-01-10T10:19:11;92087.44;;;2.21;63.51
85119;BME280;75469;47.654;10.494;2024-01-10T10:21:38;92101.13;;;2.36;63.79
85119;BME280;75469;47.654;10.494;2024-01-10T10:24:04;92093.03;;;2.81;62.61
85119;BME280;75469;47.654;10.494;2024-01-10T10:26:32;92097.94;;;3.00;62.41
85119;BME280;75469;47.654;10.494;2024-01-10T10:28:58;92094.03;;;3.49;60.79
85119;BME280;75469;47.654;10.494;2024-01-10T10:31:24;92093.50;;;2.65;63.03
85119;BME280;75469;47.654;10.494;2024-01-10T10:33:51;92098.81;;;2.25;63.44
85119;BME280;75469;47.654;10.494;2024-01-10T10:36:17;92101.75;;;2.41;63.66
85119;BME280;75469;47.654;10.494;2024-01-10T10:38:43;92104.81;;;2.35;63.89
85119;BME280;75469;47.654;10.494;2024-01-10T10:41:09;92096.81;;;2.31;64.69
85119;BME280;75469;47.654;10.494;2024-01-10T10:43:38;92106.22;;;2.41;65.96
85119;BME280;75469;47.654;10.494;2024-01-10T10:46:05;92103.78;;;2.79;65.33
85119;BME280;75469;47.654;10.494;2024-01-10T10:48:35;92097.56;;;3.44;62.44
85119;BME280;75469;47.654;10.494;2024-01-10T10:51:06;92092.88;;;2.60;63.00
85119;BME280;75469;47.654;10.494;2024-01-10T10:53:38;92094.22;;;2.40;63.79
85119;BME280;75469;47.654;10.494;2024-01-10T10:56:06;92106.41;;;1.25;67.49
85119;BME280;75469;47.654;10.494;2024-01-10T10:58:38;92096.63;;;1.08;69.66
85119;BME280;75469;47.654;10.494;2024-01-10T11:01:10;92107.53;;;1.32;68.99
85119;BME280;75469;47.654;10.494;2024-01-10T11:03:38;92104.91;;;1.10;69.46
85119;BME280;75469;47.654;10.494;2024-01-10T11:06:05;92105.56;;;0.71;70.39
85119;BME280;75469;47.654;10.494;2024-01-10T11:08:45;92101.66;;;1.27;68.89
85119;BME280;75469;47.654;10.494;2024-01-10T11:25:11;92101.19;;;1.96;68.29
85119;BME280;75469;47.654;10.494;2024-01-10T11:27:36;92109.28;;;2.43;68.13
85119;BME280;75469;47.654;10.494;2024-01-10T11:30:02;92100.69;;;2.86;66.71
85119;BME280;75469;47.654;10.494;2024-01-10T11:32:31;92101.31;;;2.57;67.35
85119;BME280;75469;47.654;10.494;2024-01-10T11:35:00;92098.53;;;2.36;67.82
85119;BME280;75469;47.654;10.494;2024-01-10T11:37:39;92099.00;;;2.46;67.45
85119;BME280;75469;47.654;10.494;2024-01-10T11:40:08;92095.34;;;2.65;67.14
85119;BME280;75469;47.654;10.494;2024-01-10T11:42:44;92090.25;;;2.86;66.71
85119;BME280;75469;47.654;10.494;2024-01-10T11:47:59;92084.44;;;2.80;66.18
85119;BME280;75469;47.654;10.494;2024-01-10T11:50:24;92086.25;;;3.06;66.31
85119;BME280;75469;47.654;10.494;2024-01-10T11:52:54;92078.59;;;2.92;66.47
85119;BME280;75469;47.654;10.494;2024-01-10T11:55:49;92085.81;;;2.86;66.58
85119;BME280;75469;47.654;10.494;2024-01-10T11:58:16;92080.88;;;2.76;66.33
85119;BME280;75469;47.654;10.494;2024-01-10T12:00:42;92087.81;;;2.98;66.45
85119;BME280;75469;47.654;10.494;2024-01-10T12:03:08;92080.59;;;2.95;65.60
85119;BME280;75469;47.654;10.494;2024-01-10T12:05:34;92083.97;;;3.04;66.79
85119;BME280;75469;47.654;10.494;2024-01-10T12:08:03;92088.28;;;2.65;66.84
85119;BME280;75469;47.654;10.494;2024-01-10T12:10:31;92081.31;;;2.35;68.85
85119;BME280;75469;47.654;10.494;2024-01-10T12:13:02;92099.13;;;2.33;69.24
85119;BME280;75469;47.654;10.494;2024-01-10T12:15:28;92083.50;;;2.41;68.77
85119;BME280;75469;47.654;10.494;2024-01-10T12:17:54;92086.38;;;2.31;69.48
85119;BME280;75469;47.654;10.494;2024-01-10T12:20:20;92090.25;;;2.42;68.61
85119;BME280;75469;47.654;10.494;2024-01-10T12:22:46;92087.03;;;2.54;68.76
85119;BME280;75469;47.654;10.494;2024-01-10T12:25:11;92085.94;;;2.29;68.14
85119;BME280;75469;47.654;10.494;2024-01-10T12:27:37;92086.38;;;1.74;70.49
85119;BME280;75469;47.654;10.494;2024-01-10T12:30:04;92087.78;;;1.40;70.96
85119;BME280;75469;47.654;10.494;2024-01-10T12:32:31;92083.88;;;1.60;72.76
85119;BME280;75469;47.654;10.494;2024-01-10T12:35:04;92087.38;;;1.95;73.36
85119;BME280;75469;47.654;10.494;2024-01-10T12:37:31;92082.97;;;2.13;72.15
85119;BME280;75469;47.654;10.494;2024-01-10T12:39:57;92081.16;;;2.14;68.40
85119;BME280;75469;47.654;10.494;2024-01-10T12:42:23;92085.00;;;2.25;69.37
85119;BME280;75469;47.654;10.494;2024-01-10T12:44:49;92082.91;;;1.87;70.95
85119;BME280;75469;47.654;10.494;2024-01-10T12:47:22;92080.03;;;1.57;72.69
85119;BME280;75469;47.654;10.494;2024-01-10T12:49:49;92082.22;;;1.33;74.72
85119;BME280;75469;47.654;10.494;2024-01-10T12:52:15;92084.25;;;1.13;75.75
85119;BME280;75469;47.654;10.494;2024-01-10T12:54:40;92079.78;;;1.05;76.38
85119;BME280;75469;47.654;10.494;2024-01-10T12:57:06;92085.56;;;0.80;76.18
85119;BME280;75469;47.654;10.494;2024-01-10T12:59:35;92084.59;;;0.53;76.30
85119;BME280;75469;47.654;10.494;2024-01-10T13:02:00;92076.28;;;0.29;76.12
85119;BME280;75469;47.654;10.494;2024-01-10T13:04:26;92081.16;;;-0.06;78.02
85119;BME280;75469;47.654;10.494;2024-01-10T13:06:52;92087.03;;;-0.14;76.94
85119;BME280;75469;47.654;10.494;2024-01-10T13:09:17;92082.22;;;-0.35;78.79